Atlantic - Newfoundland: Past 24 Hour Conditions

 

Îles de la Madeleine Airport

12:00 PM AST 23 November 2014
This table is a summary of hourly weather conditions for the past 24 hours.
Date / Time
(AST)
Wind(knots) Conditions Visibility(km) Pressure(kPa) Air tempC) Relative humidity(%) Dew pointC) Wind Chill
23 November 2014
12:00 W 18 gust 23 Mainly Sunny 24 101.1 3 78 0 *
11:00 W 15 gust 23 Partly Cloudy 24 101.1 3 78 -1 *
10:00 W 18 gust 23 Partly Cloudy 24 101.0 3 79 -1 *
9:00 W 16 gust 23 Mostly Cloudy 19 100.9 2 81 -1 *
8:00 W 18 gust 25 Light Snowshower 16 100.9 2 81 -1 *
7:00 W 17 gust 22 Mostly Cloudy 24 100.8 2 78 -2 *
6:00 W 17 gust 25 Mostly Cloudy 24 100.7 1 78 -2 *
5:00 WSW 15 gust 20 N/A N/A 100.7 0 86 -2 *
4:00 WSW 17 gust 23 N/A N/A 100.7 0 80 -3 *
3:00 W 18 gust 23 N/A N/A 100.7 0 78 -3 *
2:00 WSW 18 gust 23 N/A N/A 100.7 0 76 -4 -7
1:00 WSW 19 gust 24 N/A N/A 100.7 0 75 -4 -7
0:00 WSW 21 gust 29 N/A N/A 100.7 0 74 -4 -7
22 November 2014
23:00 WSW 25 Mostly Cloudy 24 100.7 0 70 -5 *
22:00 WSW 17 gust 28 Light Snowshower 24 100.7 0 69 -5 -7
21:00 WSW 19 gust 28 Light Snowshower 24 100.8 -1 73 -5 -8
20:00 WSW 19 gust 29 Light Snowshower 24 100.9 -3 83 -5 -10
19:00 WSW 22 gust 28 Light Snowshower 6 101.0 -4 86 -6 -12
18:00 WSW 24 gust 31 Light Snowshower 2 101.1 -3 90 -5 -12
17:00 SW 19 Light Snowshower 6 101.2 -4 76 -7 -12
16:00 WSW 16 Light Snowshower 32 101.2 -4 68 -9 -11
15:00 WSW 23 Mostly Cloudy 32 101.3 -4 64 -10 -13
14:00 W 22 gust 29 Light Snowshower 32 101.3 -4 61 -10 -12
13:00 W 20 gust 29 Light Snowshower 16 101.4 -4 72 -8 -12
12:00 W 21 gust 26 Light Snowshower 3 101.5 -4 78 -8 -13
 
Map of Atlantic - Newfoundland marine weather areas Southwestern Grand Banks - 44138 Banquereau - 44139 Tail of the Bank - 44140 Nickerson Bank - 44251 Northeast Burgeo Bank - 44255 Blanc-Sablon Airport Cap Whittle Chevery Natashquan Airport Heath Point Miscou Island Grand Étang Ingonish Beach North Mountain St.Paul Island J.A. Douglas McCurdy Sydney Airport Charlottetown Airport East Point North Cape Argentia Bonavista Burgeo Cape Race Corner Brook Daniel's Harbour Englee Ferolle Point La Scie Port aux Basques Rocky Harbour Sagona Island St. Anthony Airport St. John's Int'l Airport St. Lawrence Stephenville Airport Twillingate Winterland Wreckhouse Cartwright Airport Mary's Harbour Grates Cove Pool's Island Marticot Island Long Pond Îles de la Madeleine Airport
Legend: buoyBuoy land stationLand Station